Sycamore Township, Ohio
Current Conditions -  °F | °C
As of 7:53 AM on Friday 19 Dec 2014 (Local Time) from KLUK Reporting Station
Overcast Overcast  
Wind Chill: 23°   Ceiling: 2100
Heat Index: 28°   Visibility: 10mi
Dew Point: 21°   Wind: 5mph
Humidity: 75%   Direction: 360°N
Pressure: 30.3"   Gusts: NA
Location:  39.2437°N, 84.3529°W
Report Text: KLUK 191253Z 36004KT 10SM OVC021 M02/M06 A3030 RMK AO2 SLP265 T10221061
Loading
Personal Weather Stations






























Interactive Weather Map New forecast layout! Learn more

10-Day Weather Forecast

Advertisements
Track Severe Weather on mobile